sensor_id;sensor_type;location;lat;lon;timestamp;P1;durP1;ratioP1;P2;durP2;ratioP2
76597;SDS011;65486;53.144;18.134;2024-03-06T00:02:05;24.70;;;11.50;;
76597;SDS011;65486;53.144;18.134;2024-03-06T00:04:33;36.20;;;16.00;;
76597;SDS011;65486;53.144;18.134;2024-03-06T00:07:00;27.70;;;13.70;;
76597;SDS011;65486;53.144;18.134;2024-03-06T00:09:27;37.10;;;17.00;;
76597;SDS011;65486;53.144;18.134;2024-03-06T00:11:54;30.00;;;14.00;;
76597;SDS011;65486;53.144;18.134;2024-03-06T00:14:22;33.90;;;14.90;;
76597;SDS011;65486;53.144;18.134;2024-03-06T00:16:49;29.50;;;13.20;;
76597;SDS011;65486;53.144;18.134;2024-03-06T00:19:17;32.80;;;15.00;;
76597;SDS011;65486;53.144;18.134;2024-03-06T00:21:47;28.00;;;13.10;;
76597;SDS011;65486;53.144;18.134;2024-03-06T00:24:15;26.00;;;11.30;;
76597;SDS011;65486;53.144;18.134;2024-03-06T00:26:45;30.60;;;13.10;;
76597;SDS011;65486;53.144;18.134;2024-03-06T00:29:11;28.50;;;14.00;;
76597;SDS011;65486;53.144;18.134;2024-03-06T00:31:42;29.60;;;13.30;;
76597;SDS011;65486;53.144;18.134;2024-03-06T00:34:10;29.10;;;13.80;;
76597;SDS011;65486;53.144;18.134;2024-03-06T00:36:39;27.50;;;13.00;;
76597;SDS011;65486;53.144;18.134;2024-03-06T00:39:06;28.90;;;13.40;;
76597;SDS011;65486;53.144;18.134;2024-03-06T00:41:34;30.80;;;13.70;;
76597;SDS011;65486;53.144;18.134;2024-03-06T00:44:02;29.80;;;13.60;;
76597;SDS011;65486;53.144;18.134;2024-03-06T00:46:29;31.10;;;14.30;;
76597;SDS011;65486;53.144;18.134;2024-03-06T00:48:58;40.00;;;18.70;;
76597;SDS011;65486;53.144;18.134;2024-03-06T00:51:24;32.70;;;15.90;;
76597;SDS011;65486;53.144;18.134;2024-03-06T00:53:51;31.50;;;14.60;;
76597;SDS011;65486;53.144;18.134;2024-03-06T00:56:17;22.80;;;11.40;;
76597;SDS011;65486;53.144;18.134;2024-03-06T00:58:43;28.70;;;12.60;;
76597;SDS011;65486;53.144;18.134;2024-03-06T01:01:10;30.80;;;13.80;;
76597;SDS011;65486;53.144;18.134;2024-03-06T01:03:39;30.10;;;14.10;;
76597;SDS011;65486;53.144;18.134;2024-03-06T01:06:06;32.50;;;15.80;;
76597;SDS011;65486;53.144;18.134;2024-03-06T01:08:37;33.80;;;14.20;;
76597;SDS011;65486;53.144;18.134;2024-03-06T01:11:03;30.20;;;14.50;;
76597;SDS011;65486;53.144;18.134;2024-03-06T01:13:30;27.20;;;12.60;;
76597;SDS011;65486;53.144;18.134;2024-03-06T01:16:00;26.90;;;12.80;;
76597;SDS011;65486;53.144;18.134;2024-03-06T01:18:26;31.40;;;14.60;;
76597;SDS011;65486;53.144;18.134;2024-03-06T01:20:52;34.90;;;16.10;;
76597;SDS011;65486;53.144;18.134;2024-03-06T01:23:19;40.90;;;18.00;;
76597;SDS011;65486;53.144;18.134;2024-03-06T01:25:45;25.80;;;11.00;;
76597;SDS011;65486;53.144;18.134;2024-03-06T01:28:12;28.50;;;14.40;;
76597;SDS011;65486;53.144;18.134;2024-03-06T01:30:40;28.80;;;13.50;;
76597;SDS011;65486;53.144;18.134;2024-03-06T01:33:08;33.50;;;15.60;;
76597;SDS011;65486;53.144;18.134;2024-03-06T01:35:35;30.00;;;14.60;;
76597;SDS011;65486;53.144;18.134;2024-03-06T01:38:02;30.70;;;13.80;;
76597;SDS011;65486;53.144;18.134;2024-03-06T01:40:30;26.00;;;12.60;;
76597;SDS011;65486;53.144;18.134;2024-03-06T01:43:00;28.30;;;13.60;;
76597;SDS011;65486;53.144;18.134;2024-03-06T01:45:27;29.40;;;14.20;;
76597;SDS011;65486;53.144;18.134;2024-03-06T01:47:55;37.70;;;18.60;;
76597;SDS011;65486;53.144;18.134;2024-03-06T01:50:22;31.70;;;15.20;;
76597;SDS011;65486;53.144;18.134;2024-03-06T01:52:49;42.10;;;18.00;;
76597;SDS011;65486;53.144;18.134;2024-03-06T01:55:17;25.50;;;12.20;;
76597;SDS011;65486;53.144;18.134;2024-03-06T01:57:49;30.70;;;14.20;;
76597;SDS011;65486;53.144;18.134;2024-03-06T02:00:15;27.60;;;13.50;;
76597;SDS011;65486;53.144;18.134;2024-03-06T02:02:43;33.40;;;15.50;;
76597;SDS011;65486;53.144;18.134;2024-03-06T02:05:12;27.90;;;13.60;;
76597;SDS011;65486;53.144;18.134;2024-03-06T02:07:39;23.20;;;11.50;;
76597;SDS011;65486;53.144;18.134;2024-03-06T02:10:07;37.70;;;17.50;;
76597;SDS011;65486;53.144;18.134;2024-03-06T02:12:37;24.10;;;11.80;;
76597;SDS011;65486;53.144;18.134;2024-03-06T02:15:04;35.20;;;17.70;;
76597;SDS011;65486;53.144;18.134;2024-03-06T02:17:34;25.50;;;11.80;;
76597;SDS011;65486;53.144;18.134;2024-03-06T02:20:02;26.30;;;12.80;;
76597;SDS011;65486;53.144;18.134;2024-03-06T02:22:40;30.10;;;14.50;;
76597;SDS011;65486;53.144;18.134;2024-03-06T02:25:09;25.30;;;13.10;;
76597;SDS011;65486;53.144;18.134;2024-03-06T02:27:41;39.80;;;18.70;;
76597;SDS011;65486;53.144;18.134;2024-03-06T02:30:07;29.60;;;15.00;;
76597;SDS011;65486;53.144;18.134;2024-03-06T02:32:34;33.10;;;16.20;;
76597;SDS011;65486;53.144;18.134;2024-03-06T02:35:01;30.90;;;16.10;;
76597;SDS011;65486;53.144;18.134;2024-03-06T02:37:29;26.90;;;12.80;;
76597;SDS011;65486;53.144;18.134;2024-03-06T02:39:55;30.80;;;14.30;;
76597;SDS011;65486;53.144;18.134;2024-03-06T02:42:22;39.60;;;18.40;;
76597;SDS011;65486;53.144;18.134;2024-03-06T02:44:48;29.30;;;15.80;;
76597;SDS011;65486;53.144;18.134;2024-03-06T02:47:15;29.60;;;14.10;;
76597;SDS011;65486;53.144;18.134;2024-03-06T02:49:43;29.80;;;15.10;;
76597;SDS011;65486;53.144;18.134;2024-03-06T02:52:12;28.20;;;13.10;;
76597;SDS011;65486;53.144;18.134;2024-03-06T02:54:40;31.00;;;14.50;;
76597;SDS011;65486;53.144;18.134;2024-03-06T02:57:08;31.00;;;15.10;;
76597;SDS011;65486;53.144;18.134;2024-03-06T02:59:35;28.80;;;14.30;;
76597;SDS011;65486;53.144;18.134;2024-03-06T03:02:11;29.00;;;12.50;;
76597;SDS011;65486;53.144;18.134;2024-03-06T03:04:39;29.40;;;13.30;;
76597;SDS011;65486;53.144;18.134;2024-03-06T03:07:06;32.90;;;14.90;;
76597;SDS011;65486;53.144;18.134;2024-03-06T03:09:32;27.40;;;13.20;;
76597;SDS011;65486;53.144;18.134;2024-03-06T03:12:01;33.20;;;15.80;;
76597;SDS011;65486;53.144;18.134;2024-03-06T03:14:31;36.60;;;17.00;;
76597;SDS011;65486;53.144;18.134;2024-03-06T03:17:01;27.00;;;12.80;;
76597;SDS011;65486;53.144;18.134;2024-03-06T03:19:27;34.50;;;16.50;;
76597;SDS011;65486;53.144;18.134;2024-03-06T03:21:55;41.60;;;19.90;;
76597;SDS011;65486;53.144;18.134;2024-03-06T03:24:24;44.00;;;20.10;;
76597;SDS011;65486;53.144;18.134;2024-03-06T03:26:53;43.00;;;18.60;;
76597;SDS011;65486;53.144;18.134;2024-03-06T03:29:19;33.90;;;15.60;;
76597;SDS011;65486;53.144;18.134;2024-03-06T03:31:46;39.20;;;18.60;;
76597;SDS011;65486;53.144;18.134;2024-03-06T03:34:13;48.60;;;20.40;;
76597;SDS011;65486;53.144;18.134;2024-03-06T03:36:41;44.90;;;20.70;;
76597;SDS011;65486;53.144;18.134;2024-03-06T03:39:12;33.20;;;15.30;;
76597;SDS011;65486;53.144;18.134;2024-03-06T03:41:45;48.20;;;21.60;;
76597;SDS011;65486;53.144;18.134;2024-03-06T03:44:13;34.30;;;14.40;;
76597;SDS011;65486;53.144;18.134;2024-03-06T03:46:40;34.60;;;14.30;;
76597;SDS011;65486;53.144;18.134;2024-03-06T03:49:07;39.00;;;17.70;;
76597;SDS011;65486;53.144;18.134;2024-03-06T03:51:38;39.90;;;17.60;;
76597;SDS011;65486;53.144;18.134;2024-03-06T03:54:09;38.00;;;15.90;;
76597;SDS011;65486;53.144;18.134;2024-03-06T03:56:37;34.90;;;15.90;;
76597;SDS011;65486;53.144;18.134;2024-03-06T03:59:03;44.10;;;18.70;;
76597;SDS011;65486;53.144;18.134;2024-03-06T04:01:30;45.70;;;19.60;;
76597;SDS011;65486;53.144;18.134;2024-03-06T04:03:58;46.30;;;20.90;;
76597;SDS011;65486;53.144;18.134;2024-03-06T04:06:26;47.20;;;20.70;;
76597;SDS011;65486;53.144;18.134;2024-03-06T04:08:52;46.80;;;21.30;;
76597;SDS011;65486;53.144;18.134;2024-03-06T04:11:22;51.00;;;22.00;;
76597;SDS011;65486;53.144;18.134;2024-03-06T04:13:48;51.90;;;23.00;;
76597;SDS011;65486;53.144;18.134;2024-03-06T04:16:15;51.00;;;22.00;;
76597;SDS011;65486;53.144;18.134;2024-03-06T04:18:46;58.70;;;22.70;;
76597;SDS011;65486;53.144;18.134;2024-03-06T04:21:15;55.40;;;23.70;;
76597;SDS011;65486;53.144;18.134;2024-03-06T04:23:43;37.20;;;17.80;;
76597;SDS011;65486;53.144;18.134;2024-03-06T04:26:10;54.50;;;22.80;;
76597;SDS011;65486;53.144;18.134;2024-03-06T04:28:37;54.10;;;23.70;;
76597;SDS011;65486;53.144;18.134;2024-03-06T04:31:04;44.00;;;18.70;;
76597;SDS011;65486;53.144;18.134;2024-03-06T04:33:31;48.30;;;20.30;;
76597;SDS011;65486;53.144;18.134;2024-03-06T04:35:58;52.40;;;21.10;;
76597;SDS011;65486;53.144;18.134;2024-03-06T04:38:28;57.10;;;24.50;;
76597;SDS011;65486;53.144;18.134;2024-03-06T04:40:57;55.70;;;24.50;;
76597;SDS011;65486;53.144;18.134;2024-03-06T04:43:24;60.20;;;24.70;;
76597;SDS011;65486;53.144;18.134;2024-03-06T04:45:51;54.80;;;22.90;;
76597;SDS011;65486;53.144;18.134;2024-03-06T04:48:18;67.10;;;27.00;;
76597;SDS011;65486;53.144;18.134;2024-03-06T04:50:44;57.30;;;22.30;;
76597;SDS011;65486;53.144;18.134;2024-03-06T04:53:11;61.70;;;24.90;;
76597;SDS011;65486;53.144;18.134;2024-03-06T04:55:41;68.40;;;28.10;;
76597;SDS011;65486;53.144;18.134;2024-03-06T04:58:08;75.10;;;28.60;;
76597;SDS011;65486;53.144;18.134;2024-03-06T05:00:36;82.10;;;31.40;;
76597;SDS011;65486;53.144;18.134;2024-03-06T05:03:03;73.40;;;28.40;;
76597;SDS011;65486;53.144;18.134;2024-03-06T05:05:29;71.40;;;27.40;;
76597;SDS011;65486;53.144;18.134;2024-03-06T05:08:00;75.60;;;28.30;;
76597;SDS011;65486;53.144;18.134;2024-03-06T05:10:27;68.90;;;27.30;;
76597;SDS011;65486;53.144;18.134;2024-03-06T05:12:53;85.80;;;29.80;;
76597;SDS011;65486;53.144;18.134;2024-03-06T05:15:21;68.70;;;24.40;;
76597;SDS011;65486;53.144;18.134;2024-03-06T05:17:51;64.10;;;25.90;;
76597;SDS011;65486;53.144;18.134;2024-03-06T05:20:19;76.50;;;28.00;;
76597;SDS011;65486;53.144;18.134;2024-03-06T05:22:47;87.10;;;31.90;;
76597;SDS011;65486;53.144;18.134;2024-03-06T05:25:14;74.80;;;26.20;;
76597;SDS011;65486;53.144;18.134;2024-03-06T05:27:40;56.20;;;20.10;;
76597;SDS011;65486;53.144;18.134;2024-03-06T05:30:07;61.40;;;22.20;;
76597;SDS011;65486;53.144;18.134;2024-03-06T05:32:34;63.50;;;24.90;;
76597;SDS011;65486;53.144;18.134;2024-03-06T05:35:04;80.00;;;28.80;;
76597;SDS011;65486;53.144;18.134;2024-03-06T05:37:31;69.30;;;25.70;;
76597;SDS011;65486;53.144;18.134;2024-03-06T05:39:58;70.70;;;26.30;;
76597;SDS011;65486;53.144;18.134;2024-03-06T05:42:24;59.80;;;22.60;;
76597;SDS011;65486;53.144;18.134;2024-03-06T05:44:51;73.60;;;26.80;;
76597;SDS011;65486;53.144;18.134;2024-03-06T05:47:20;67.10;;;24.70;;
76597;SDS011;65486;53.144;18.134;2024-03-06T05:49:46;65.70;;;25.90;;
76597;SDS011;65486;53.144;18.134;2024-03-06T05:52:13;90.50;;;32.80;;
76597;SDS011;65486;53.144;18.134;2024-03-06T05:54:40;72.70;;;26.60;;
76597;SDS011;65486;53.144;18.134;2024-03-06T05:57:06;82.60;;;30.40;;
76597;SDS011;65486;53.144;18.134;2024-03-06T05:59:35;93.00;;;34.70;;
76597;SDS011;65486;53.144;18.134;2024-03-06T06:02:04;83.00;;;28.70;;
76597;SDS011;65486;53.144;18.134;2024-03-06T06:04:35;105.80;;;36.80;;
76597;SDS011;65486;53.144;18.134;2024-03-06T06:07:02;65.00;;;23.90;;
76597;SDS011;65486;53.144;18.134;2024-03-06T06:09:30;86.30;;;31.60;;
76597;SDS011;65486;53.144;18.134;2024-03-06T06:11:57;99.00;;;37.00;;
76597;SDS011;65486;53.144;18.134;2024-03-06T06:14:25;86.50;;;31.30;;
76597;SDS011;65486;53.144;18.134;2024-03-06T06:16:57;63.90;;;25.20;;
76597;SDS011;65486;53.144;18.134;2024-03-06T06:19:24;71.30;;;24.60;;
76597;SDS011;65486;53.144;18.134;2024-03-06T06:21:51;74.60;;;29.10;;
76597;SDS011;65486;53.144;18.134;2024-03-06T06:24:23;74.00;;;28.40;;
76597;SDS011;65486;53.144;18.134;2024-03-06T06:26:53;98.80;;;37.80;;
76597;SDS011;65486;53.144;18.134;2024-03-06T06:29:19;75.10;;;28.60;;
76597;SDS011;65486;53.144;18.134;2024-03-06T06:31:45;68.40;;;28.60;;
76597;SDS011;65486;53.144;18.134;2024-03-06T06:34:13;57.70;;;24.70;;
76597;SDS011;65486;53.144;18.134;2024-03-06T06:36:44;71.30;;;29.00;;
76597;SDS011;65486;53.144;18.134;2024-03-06T06:39:14;60.20;;;24.20;;
76597;SDS011;65486;53.144;18.134;2024-03-06T06:41:42;47.40;;;20.70;;
76597;SDS011;65486;53.144;18.134;2024-03-06T06:44:10;55.40;;;22.40;;
76597;SDS011;65486;53.144;18.134;2024-03-06T06:46:36;61.80;;;26.70;;
76597;SDS011;65486;53.144;18.134;2024-03-06T06:49:09;67.30;;;29.20;;
76597;SDS011;65486;53.144;18.134;2024-03-06T06:51:38;43.90;;;19.90;;
76597;SDS011;65486;53.144;18.134;2024-03-06T06:54:08;51.60;;;21.60;;
76597;SDS011;65486;53.144;18.134;2024-03-06T06:56:34;69.00;;;28.10;;
76597;SDS011;65486;53.144;18.134;2024-03-06T06:59:06;51.90;;;21.30;;
76597;SDS011;65486;53.144;18.134;2024-03-06T07:01:32;58.40;;;24.80;;
76597;SDS011;65486;53.144;18.134;2024-03-06T07:04:00;47.00;;;21.40;;
76597;SDS011;65486;53.144;18.134;2024-03-06T07:06:28;48.10;;;20.60;;
76597;SDS011;65486;53.144;18.134;2024-03-06T07:08:54;59.60;;;26.50;;
76597;SDS011;65486;53.144;18.134;2024-03-06T07:11:20;55.50;;;24.20;;
76597;SDS011;65486;53.144;18.134;2024-03-06T07:13:47;66.40;;;26.40;;
76597;SDS011;65486;53.144;18.134;2024-03-06T07:16:13;82.90;;;32.80;;
76597;SDS011;65486;53.144;18.134;2024-03-06T07:18:40;66.60;;;27.70;;
76597;SDS011;65486;53.144;18.134;2024-03-06T07:21:10;74.50;;;30.60;;
76597;SDS011;65486;53.144;18.134;2024-03-06T07:23:38;67.90;;;27.00;;
76597;SDS011;65486;53.144;18.134;2024-03-06T07:26:04;62.20;;;27.40;;
76597;SDS011;65486;53.144;18.134;2024-03-06T07:28:30;48.00;;;20.80;;
76597;SDS011;65486;53.144;18.134;2024-03-06T07:30:57;47.40;;;20.60;;
76597;SDS011;65486;53.144;18.134;2024-03-06T07:33:23;56.40;;;23.70;;
76597;SDS011;65486;53.144;18.134;2024-03-06T07:35:49;38.50;;;18.60;;
76597;SDS011;65486;53.144;18.134;2024-03-06T07:38:16;47.00;;;21.90;;
76597;SDS011;65486;53.144;18.134;2024-03-06T07:40:43;47.50;;;21.70;;
76597;SDS011;65486;53.144;18.134;2024-03-06T07:43:09;58.90;;;25.40;;
76597;SDS011;65486;53.144;18.134;2024-03-06T07:45:36;50.20;;;22.90;;
76597;SDS011;65486;53.144;18.134;2024-03-06T07:48:03;57.00;;;26.00;;
76597;SDS011;65486;53.144;18.134;2024-03-06T07:50:29;48.00;;;22.60;;
76597;SDS011;65486;53.144;18.134;2024-03-06T07:52:56;54.50;;;24.10;;
76597;SDS011;65486;53.144;18.134;2024-03-06T07:55:22;37.60;;;16.50;;
76597;SDS011;65486;53.144;18.134;2024-03-06T07:57:48;45.90;;;19.30;;
76597;SDS011;65486;53.144;18.134;2024-03-06T08:00:15;51.00;;;22.30;;
76597;SDS011;65486;53.144;18.134;2024-03-06T08:02:45;52.00;;;24.20;;
76597;SDS011;65486;53.144;18.134;2024-03-06T08:05:16;49.70;;;22.30;;
76597;SDS011;65486;53.144;18.134;2024-03-06T08:07:42;49.80;;;22.80;;
76597;SDS011;65486;53.144;18.134;2024-03-06T08:10:09;47.90;;;22.10;;
76597;SDS011;65486;53.144;18.134;2024-03-06T08:12:42;50.40;;;22.70;;
76597;SDS011;65486;53.144;18.134;2024-03-06T08:15:10;51.70;;;23.70;;
76597;SDS011;65486;53.144;18.134;2024-03-06T08:17:38;44.00;;;19.80;;
76597;SDS011;65486;53.144;18.134;2024-03-06T08:20:10;47.40;;;22.30;;
76597;SDS011;65486;53.144;18.134;2024-03-06T08:22:38;47.20;;;22.20;;
76597;SDS011;65486;53.144;18.134;2024-03-06T08:25:08;42.60;;;18.60;;
76597;SDS011;65486;53.144;18.134;2024-03-06T08:27:38;45.90;;;19.80;;
76597;SDS011;65486;53.144;18.134;2024-03-06T08:30:06;42.30;;;19.70;;
76597;SDS011;65486;53.144;18.134;2024-03-06T08:32:35;39.50;;;17.60;;
76597;SDS011;65486;53.144;18.134;2024-03-06T08:35:05;42.10;;;20.50;;
76597;SDS011;65486;53.144;18.134;2024-03-06T08:37:32;36.80;;;18.30;;
76597;SDS011;65486;53.144;18.134;2024-03-06T08:39:59;36.30;;;16.90;;
76597;SDS011;65486;53.144;18.134;2024-03-06T08:42:27;29.40;;;14.80;;
76597;SDS011;65486;53.144;18.134;2024-03-06T08:44:56;23.70;;;12.30;;
76597;SDS011;65486;53.144;18.134;2024-03-06T08:47:24;28.10;;;14.80;;
76597;SDS011;65486;53.144;18.134;2024-03-06T08:49:52;32.50;;;15.90;;
76597;SDS011;65486;53.144;18.134;2024-03-06T08:52:20;32.10;;;15.80;;
76597;SDS011;65486;53.144;18.134;2024-03-06T08:54:48;30.10;;;13.90;;
76597;SDS011;65486;53.144;18.134;2024-03-06T08:57:15;26.90;;;14.30;;
76597;SDS011;65486;53.144;18.134;2024-03-06T08:59:42;37.20;;;18.20;;
76597;SDS011;65486;53.144;18.134;2024-03-06T09:02:12;41.00;;;19.70;;
76597;SDS011;65486;53.144;18.134;2024-03-06T09:04:43;34.90;;;17.50;;
76597;SDS011;65486;53.144;18.134;2024-03-06T09:07:12;33.70;;;17.40;;
76597;SDS011;65486;53.144;18.134;2024-03-06T09:09:39;33.30;;;15.70;;
76597;SDS011;65486;53.144;18.134;2024-03-06T09:12:06;31.50;;;15.80;;
76597;SDS011;65486;53.144;18.134;2024-03-06T09:14:40;22.30;;;12.30;;
76597;SDS011;65486;53.144;18.134;2024-03-06T09:17:07;34.10;;;17.30;;
76597;SDS011;65486;53.144;18.134;2024-03-06T09:19:36;28.00;;;15.00;;
76597;SDS011;65486;53.144;18.134;2024-03-06T09:22:02;28.10;;;15.00;;
76597;SDS011;65486;53.144;18.134;2024-03-06T09:24:33;34.00;;;17.30;;
76597;SDS011;65486;53.144;18.134;2024-03-06T09:27:04;25.40;;;13.10;;
76597;SDS011;65486;53.144;18.134;2024-03-06T09:29:31;24.40;;;13.90;;
76597;SDS011;65486;53.144;18.134;2024-03-06T09:31:57;26.10;;;15.00;;
76597;SDS011;65486;53.144;18.134;2024-03-06T09:34:25;25.90;;;14.90;;
76597;SDS011;65486;53.144;18.134;2024-03-06T09:36:55;24.70;;;13.90;;
76597;SDS011;65486;53.144;18.134;2024-03-06T09:39:24;29.30;;;15.50;;
76597;SDS011;65486;53.144;18.134;2024-03-06T09:41:50;21.80;;;12.50;;
76597;SDS011;65486;53.144;18.134;2024-03-06T09:44:18;22.80;;;13.30;;
76597;SDS011;65486;53.144;18.134;2024-03-06T09:46:46;29.50;;;15.50;;
76597;SDS011;65486;53.144;18.134;2024-03-06T09:49:15;26.10;;;13.10;;
76597;SDS011;65486;53.144;18.134;2024-03-06T09:51:43;25.30;;;12.60;;
76597;SDS011;65486;53.144;18.134;2024-03-06T09:54:14;29.80;;;14.80;;
76597;SDS011;65486;53.144;18.134;2024-03-06T09:56:42;34.30;;;16.50;;
76597;SDS011;65486;53.144;18.134;2024-03-06T09:59:18;30.80;;;16.10;;
76597;SDS011;65486;53.144;18.134;2024-03-06T10:04:21;24.70;;;13.10;;
76597;SDS011;65486;53.144;18.134;2024-03-06T10:06:48;31.50;;;15.40;;
76597;SDS011;65486;53.144;18.134;2024-03-06T10:09:18;31.80;;;15.80;;
76597;SDS011;65486;53.144;18.134;2024-03-06T10:11:45;27.70;;;14.90;;
76597;SDS011;65486;53.144;18.134;2024-03-06T10:14:11;33.50;;;17.30;;
76597;SDS011;65486;53.144;18.134;2024-03-06T10:16:50;35.20;;;17.20;;
76597;SDS011;65486;53.144;18.134;2024-03-06T10:19:26;32.40;;;17.20;;
76597;SDS011;65486;53.144;18.134;2024-03-06T10:21:54;27.30;;;14.70;;
76597;SDS011;65486;53.144;18.134;2024-03-06T10:24:24;27.30;;;13.70;;
76597;SDS011;65486;53.144;18.134;2024-03-06T10:26:55;20.50;;;11.10;;
76597;SDS011;65486;53.144;18.134;2024-03-06T10:29:25;27.90;;;15.10;;
76597;SDS011;65486;53.144;18.134;2024-03-06T10:31:53;29.60;;;16.10;;
76597;SDS011;65486;53.144;18.134;2024-03-06T10:34:22;33.30;;;16.90;;
76597;SDS011;65486;53.144;18.134;2024-03-06T10:36:57;26.30;;;15.40;;
76597;SDS011;65486;53.144;18.134;2024-03-06T10:39:25;21.50;;;11.60;;
76597;SDS011;65486;53.144;18.134;2024-03-06T10:41:57;35.20;;;16.30;;
76597;SDS011;65486;53.144;18.134;2024-03-06T10:44:28;33.40;;;16.40;;
76597;SDS011;65486;53.144;18.134;2024-03-06T10:46:57;28.10;;;15.10;;
76597;SDS011;65486;53.144;18.134;2024-03-06T10:49:29;32.90;;;15.20;;
76597;SDS011;65486;53.144;18.134;2024-03-06T10:52:01;31.00;;;16.00;;
76597;SDS011;65486;53.144;18.134;2024-03-06T10:54:32;31.30;;;15.80;;
76597;SDS011;65486;53.144;18.134;2024-03-06T10:57:01;29.20;;;16.00;;
76597;SDS011;65486;53.144;18.134;2024-03-06T10:59:28;31.80;;;16.80;;
76597;SDS011;65486;53.144;18.134;2024-03-06T11:01:56;35.10;;;16.50;;
76597;SDS011;65486;53.144;18.134;2024-03-06T11:04:26;30.90;;;14.00;;
76597;SDS011;65486;53.144;18.134;2024-03-06T11:06:55;29.40;;;15.60;;
76597;SDS011;65486;53.144;18.134;2024-03-06T11:09:26;31.40;;;16.40;;
76597;SDS011;65486;53.144;18.134;2024-03-06T11:11:53;31.80;;;15.90;;
76597;SDS011;65486;53.144;18.134;2024-03-06T11:14:22;30.30;;;16.70;;
76597;SDS011;65486;53.144;18.134;2024-03-06T11:19:32;26.00;;;13.40;;
76597;SDS011;65486;53.144;18.134;2024-03-06T11:22:25;25.80;;;14.20;;
76597;SDS011;65486;53.144;18.134;2024-03-06T11:28:22;25.50;;;13.90;;
76597;SDS011;65486;53.144;18.134;2024-03-06T11:36:19;32.10;;;17.10;;
76597;SDS011;65486;53.144;18.134;2024-03-06T11:39:05;27.70;;;15.50;;
76597;SDS011;65486;53.144;18.134;2024-03-06T11:41:48;24.20;;;13.40;;
76597;SDS011;65486;53.144;18.134;2024-03-06T11:44:16;25.10;;;12.30;;
76597;SDS011;65486;53.144;18.134;2024-03-06T11:47:01;31.80;;;14.40;;
76597;SDS011;65486;53.144;18.134;2024-03-06T11:49:31;29.60;;;16.50;;
76597;SDS011;65486;53.144;18.134;2024-03-06T11:52:05;31.00;;;16.10;;
76597;SDS011;65486;53.144;18.134;2024-03-06T11:54:35;32.50;;;16.30;;
76597;SDS011;65486;53.144;18.134;2024-03-06T11:57:03;28.10;;;14.70;;
76597;SDS011;65486;53.144;18.134;2024-03-06T11:59:34;27.80;;;13.10;;
76597;SDS011;65486;53.144;18.134;2024-03-06T12:02:05;23.20;;;13.30;;
76597;SDS011;65486;53.144;18.134;2024-03-06T12:04:40;23.70;;;13.00;;
76597;SDS011;65486;53.144;18.134;2024-03-06T12:07:07;27.70;;;13.70;;
76597;SDS011;65486;53.144;18.134;2024-03-06T12:09:35;28.80;;;15.30;;
76597;SDS011;65486;53.144;18.134;2024-03-06T12:12:05;32.00;;;15.70;;
76597;SDS011;65486;53.144;18.134;2024-03-06T12:14:36;21.90;;;13.00;;
76597;SDS011;65486;53.144;18.134;2024-03-06T12:17:04;23.20;;;12.60;;
76597;SDS011;65486;53.144;18.134;2024-03-06T12:19:31;27.30;;;15.20;;
76597;SDS011;65486;53.144;18.134;2024-03-06T12:22:01;27.20;;;14.80;;
76597;SDS011;65486;53.144;18.134;2024-03-06T12:24:34;26.90;;;14.50;;
76597;SDS011;65486;53.144;18.134;2024-03-06T12:27:01;19.50;;;10.50;;
76597;SDS011;65486;53.144;18.134;2024-03-06T12:29:30;21.90;;;11.90;;
76597;SDS011;65486;53.144;18.134;2024-03-06T12:32:03;32.40;;;14.40;;
76597;SDS011;65486;53.144;18.134;2024-03-06T12:34:32;20.90;;;11.60;;
76597;SDS011;65486;53.144;18.134;2024-03-06T12:37:08;23.90;;;12.70;;
76597;SDS011;65486;53.144;18.134;2024-03-06T12:39:38;21.60;;;12.40;;
76597;SDS011;65486;53.144;18.134;2024-03-06T12:42:06;22.90;;;13.00;;
76597;SDS011;65486;53.144;18.134;2024-03-06T12:44:32;23.10;;;11.50;;
76597;SDS011;65486;53.144;18.134;2024-03-06T12:47:06;18.30;;;10.70;;
76597;SDS011;65486;53.144;18.134;2024-03-06T12:49:39;20.40;;;10.80;;
76597;SDS011;65486;53.144;18.134;2024-03-06T12:52:12;27.10;;;12.30;;
76597;SDS011;65486;53.144;18.134;2024-03-06T12:54:41;24.70;;;12.90;;
76597;SDS011;65486;53.144;18.134;2024-03-06T12:57:08;22.30;;;12.30;;
76597;SDS011;65486;53.144;18.134;2024-03-06T12:59:34;19.00;;;9.80;;
76597;SDS011;65486;53.144;18.134;2024-03-06T13:02:01;22.30;;;11.30;;
76597;SDS011;65486;53.144;18.134;2024-03-06T13:04:31;22.80;;;11.90;;
76597;SDS011;65486;53.144;18.134;2024-03-06T13:06:57;21.10;;;12.20;;
76597;SDS011;65486;53.144;18.134;2024-03-06T13:09:24;21.60;;;11.00;;
76597;SDS011;65486;53.144;18.134;2024-03-06T13:11:52;24.80;;;11.90;;
76597;SDS011;65486;53.144;18.134;2024-03-06T13:14:21;18.70;;;11.20;;
76597;SDS011;65486;53.144;18.134;2024-03-06T13:16:49;19.60;;;11.20;;
76597;SDS011;65486;53.144;18.134;2024-03-06T13:19:15;17.00;;;9.70;;
76597;SDS011;65486;53.144;18.134;2024-03-06T13:21:42;17.50;;;10.00;;
76597;SDS011;65486;53.144;18.134;2024-03-06T13:24:08;21.40;;;11.60;;
76597;SDS011;65486;53.144;18.134;2024-03-06T13:26:34;16.10;;;8.60;;
76597;SDS011;65486;53.144;18.134;2024-03-06T13:29:03;17.50;;;10.00;;
76597;SDS011;65486;53.144;18.134;2024-03-06T13:31:30;17.30;;;9.70;;
76597;SDS011;65486;53.144;18.134;2024-03-06T13:34:02;14.90;;;7.10;;
76597;SDS011;65486;53.144;18.134;2024-03-06T13:36:29;19.80;;;10.30;;
76597;SDS011;65486;53.144;18.134;2024-03-06T13:38:59;18.30;;;9.10;;
76597;SDS011;65486;53.144;18.134;2024-03-06T13:41:25;17.20;;;8.50;;
76597;SDS011;65486;53.144;18.134;2024-03-06T13:43:52;12.10;;;6.80;;
76597;SDS011;65486;53.144;18.134;2024-03-06T13:46:18;13.40;;;6.90;;
76597;SDS011;65486;53.144;18.134;2024-03-06T13:48:44;18.70;;;8.60;;
76597;SDS011;65486;53.144;18.134;2024-03-06T13:51:10;16.20;;;7.70;;
76597;SDS011;65486;53.144;18.134;2024-03-06T13:53:37;23.00;;;10.70;;
76597;SDS011;65486;53.144;18.134;2024-03-06T13:56:07;23.90;;;10.70;;
76597;SDS011;65486;53.144;18.134;2024-03-06T13:58:35;14.60;;;6.80;;
76597;SDS011;65486;53.144;18.134;2024-03-06T14:01:02;31.90;;;13.00;;
76597;SDS011;65486;53.144;18.134;2024-03-06T14:03:28;24.60;;;11.10;;
76597;SDS011;65486;53.144;18.134;2024-03-06T14:05:55;24.10;;;11.70;;
76597;SDS011;65486;53.144;18.134;2024-03-06T14:08:21;15.80;;;8.70;;
76597;SDS011;65486;53.144;18.134;2024-03-06T14:10:48;15.20;;;8.30;;
76597;SDS011;65486;53.144;18.134;2024-03-06T14:13:14;14.20;;;7.60;;
76597;SDS011;65486;53.144;18.134;2024-03-06T14:15:41;16.20;;;8.50;;
76597;SDS011;65486;53.144;18.134;2024-03-06T14:18:07;16.40;;;8.80;;
76597;SDS011;65486;53.144;18.134;2024-03-06T14:20:34;12.20;;;6.60;;
76597;SDS011;65486;53.144;18.134;2024-03-06T14:23:01;17.30;;;7.70;;
76597;SDS011;65486;53.144;18.134;2024-03-06T14:25:28;20.00;;;9.10;;
76597;SDS011;65486;53.144;18.134;2024-03-06T14:27:55;14.60;;;6.90;;
76597;SDS011;65486;53.144;18.134;2024-03-06T14:30:21;16.00;;;7.90;;